createdAt,value
2019-04-26T00:00:10.101Z,14.69
2019-04-26T00:01:09.993Z,14.73
2019-04-26T00:02:09.883Z,14.73
2019-04-26T00:03:10.210Z,14.70
2019-04-26T00:04:10.204Z,14.64
2019-04-26T00:05:10.154Z,14.59
2019-04-26T00:06:09.016Z,14.64
2019-04-26T00:07:09.558Z,14.55
2019-04-26T00:08:09.280Z,14.59
2019-04-26T00:09:09.408Z,14.59
2019-04-26T00:10:10.365Z,14.55
2019-04-26T00:11:09.642Z,14.52
2019-04-26T00:12:10.708Z,14.63
2019-04-26T00:13:09.818Z,14.53
2019-04-26T00:14:09.869Z,14.51
2019-04-26T00:15:08.882Z,14.45
2019-04-26T00:16:08.893Z,14.52
2019-04-26T00:17:09.235Z,14.52
2019-04-26T00:18:08.818Z,14.46
2019-04-26T00:19:09.408Z,14.49
2019-04-26T00:20:08.810Z,14.55
2019-04-26T00:21:09.618Z,14.51
2019-04-26T00:22:08.797Z,14.49
2019-04-26T00:23:10.616Z,14.41
2019-04-26T00:24:08.750Z,14.37
2019-04-26T00:25:08.766Z,14.44
2019-04-26T00:26:08.724Z,14.37
2019-04-26T00:27:08.731Z,14.37
2019-04-26T00:28:08.702Z,14.41
2019-04-26T00:29:08.691Z,14.34
2019-04-26T00:30:08.703Z,14.36
2019-04-26T00:31:08.674Z,14.33
2019-04-26T00:32:08.714Z,14.21
2019-04-26T00:33:08.647Z,14.23
2019-04-26T00:34:08.637Z,14.18
2019-04-26T00:35:08.626Z,14.11
2019-04-26T00:36:08.637Z,14.16
2019-04-26T00:37:08.629Z,14.13
2019-04-26T00:38:08.588Z,14.19
2019-04-26T00:39:08.579Z,14.13
2019-04-26T00:40:08.601Z,14.15
2019-04-26T00:41:08.558Z,14.26
2019-04-26T00:42:08.629Z,14.16
2019-04-26T00:43:08.536Z,14.18
2019-04-26T00:44:08.548Z,14.09
2019-04-26T00:45:08.537Z,14.15
2019-04-26T00:46:08.556Z,14.13
2019-04-26T00:47:08.557Z,14.03
2019-04-26T00:48:08.544Z,14.03
2019-04-26T00:49:08.520Z,14.01
2019-04-26T00:50:08.552Z,13.98
2019-04-26T00:51:08.505Z,14.00
2019-04-26T00:52:08.565Z,14.09
2019-04-26T00:53:08.459Z,14.08
2019-04-26T00:54:08.436Z,14.15
2019-04-26T00:55:08.406Z,14.16
2019-04-26T00:56:08.398Z,14.13
2019-04-26T00:57:08.408Z,14.15
2019-04-26T00:58:08.374Z,14.19
2019-04-26T00:59:08.362Z,14.15
2019-04-26T01:00:08.366Z,14.09
2019-04-26T01:01:08.336Z,14.28
2019-04-26T01:02:08.387Z,14.18
2019-04-26T01:03:08.322Z,14.27
2019-04-26T01:04:08.310Z,14.15
2019-04-26T01:05:08.302Z,14.15
2019-04-26T01:06:08.292Z,14.11
2019-04-26T01:07:08.305Z,14.13
2019-04-26T01:08:08.263Z,14.19
2019-04-26T01:09:08.246Z,14.11
2019-04-26T01:10:08.237Z,14.16
2019-04-26T01:11:08.238Z,14.13
2019-04-26T01:12:08.213Z,14.11
2019-04-26T01:13:08.230Z,14.12
2019-04-26T01:14:08.192Z,14.03
2019-04-26T01:15:08.181Z,14.01
2019-04-26T01:16:08.192Z,14.03
2019-04-26T01:17:08.164Z,14.05
2019-04-26T01:18:08.212Z,14.03
2019-04-26T01:19:08.140Z,14.03
2019-04-26T01:20:08.123Z,14.01
2019-04-26T01:21:08.138Z,14.01
2019-04-26T01:22:08.151Z,14.01
2019-04-26T01:23:08.119Z,14.00
2019-04-26T01:24:08.116Z,14.01
2019-04-26T01:25:08.080Z,13.93
2019-04-26T01:26:08.063Z,13.96
2019-04-26T01:27:08.095Z,13.93
2019-04-26T01:28:08.099Z,13.91
2019-04-26T01:29:08.029Z,13.85
2019-04-26T01:30:08.070Z,13.79
2019-04-26T01:31:08.009Z,13.85
2019-04-26T01:32:07.996Z,13.79
2019-04-26T01:33:08.033Z,13.80
2019-04-26T01:34:07.978Z,13.67
2019-04-26T01:35:07.965Z,13.78
2019-04-26T01:36:13.210Z,13.79
2019-04-26T01:37:08.954Z,13.71
2019-04-26T01:38:07.979Z,13.68
2019-04-26T01:39:07.917Z,13.71
2019-04-26T01:40:07.916Z,13.73
2019-04-26T01:41:07.904Z,13.71
2019-04-26T01:42:07.894Z,13.71
2019-04-26T01:43:07.950Z,13.72
2019-04-26T01:44:07.868Z,13.73
2019-04-26T01:45:07.855Z,13.65
2019-04-26T01:46:07.835Z,13.67
2019-04-26T01:47:07.828Z,13.72
2019-04-26T01:48:07.841Z,13.65
2019-04-26T01:49:07.808Z,13.61
2019-04-26T01:50:07.794Z,13.60
2019-04-26T01:51:07.791Z,13.63
2019-04-26T01:52:07.772Z,13.57
2019-04-26T01:53:07.817Z,13.63
2019-04-26T01:54:07.783Z,13.65
2019-04-26T01:55:07.758Z,13.65
2019-04-26T01:56:07.732Z,13.55
2019-04-26T01:57:07.764Z,13.64
2019-04-26T01:58:07.737Z,13.54
2019-04-26T01:59:07.755Z,13.64
2019-04-26T02:00:07.731Z,13.57
2019-04-26T02:01:07.736Z,13.57
2019-04-26T02:02:07.662Z,13.57
2019-04-26T02:03:07.653Z,13.53
2019-04-26T02:04:07.672Z,13.49
2019-04-26T02:05:07.633Z,13.49
2019-04-26T02:06:07.643Z,13.53
2019-04-26T02:07:07.650Z,13.54
2019-04-26T02:08:07.654Z,13.61
2019-04-26T02:09:07.582Z,13.53
2019-04-26T02:10:07.576Z,13.58
2019-04-26T02:11:07.563Z,13.55
2019-04-26T02:12:07.585Z,13.51
2019-04-26T02:13:07.568Z,13.53
2019-04-26T02:14:07.528Z,13.51
2019-04-26T02:15:07.545Z,13.55
2019-04-26T02:16:07.517Z,13.54
2019-04-26T02:17:07.523Z,13.51
2019-04-26T02:18:07.508Z,13.54
2019-04-26T02:19:07.483Z,13.45
2019-04-26T02:20:07.478Z,13.46
2019-04-26T02:21:07.459Z,13.53
2019-04-26T02:22:07.452Z,13.54
2019-04-26T02:23:07.458Z,13.45
2019-04-26T02:24:07.453Z,13.46
2019-04-26T02:25:07.409Z,13.49
2019-04-26T02:26:07.397Z,13.49
2019-04-26T02:27:07.434Z,13.47
2019-04-26T02:28:07.398Z,13.55
2019-04-26T02:29:07.427Z,13.49
2019-04-26T02:30:07.354Z,13.51
2019-04-26T02:31:07.369Z,13.53
2019-04-26T02:32:07.410Z,13.54
2019-04-26T02:33:07.353Z,13.58
2019-04-26T02:34:07.407Z,13.54
2019-04-26T02:35:07.299Z,13.57
2019-04-26T02:36:07.344Z,13.61
2019-04-26T02:37:07.310Z,13.55
2019-04-26T02:38:07.278Z,13.54
2019-04-26T02:39:07.304Z,13.47
2019-04-26T02:40:07.251Z,13.55
2019-04-26T02:41:07.277Z,13.47
2019-04-26T02:42:07.239Z,13.53
2019-04-26T02:43:07.238Z,13.60
2019-04-26T02:44:07.232Z,13.51
2019-04-26T02:45:07.188Z,13.55
2019-04-26T02:46:07.184Z,13.61
2019-04-26T02:47:07.203Z,13.53
2019-04-26T02:48:07.162Z,13.60
2019-04-26T02:49:07.191Z,13.61
2019-04-26T02:50:07.180Z,13.54
2019-04-26T02:51:07.154Z,13.51
2019-04-26T02:52:07.138Z,13.55
2019-04-26T02:53:07.114Z,13.55
2019-04-26T02:54:07.155Z,13.63
2019-04-26T02:55:07.077Z,13.57
2019-04-26T02:56:07.110Z,13.58
2019-04-26T02:57:07.142Z,13.49
2019-04-26T02:58:07.046Z,13.40
2019-04-26T02:59:07.121Z,13.53
2019-04-26T03:01:26.195Z,13.54
2019-04-26T03:04:00.203Z,13.58
2019-04-26T03:05:38.008Z,13.60
2019-04-26T03:05:39.647Z,13.53
2019-04-26T03:06:37.281Z,13.57
2019-04-26T03:07:37.584Z,13.55
2019-04-26T03:08:37.782Z,13.55
2019-04-26T03:09:37.034Z,13.58
2019-04-26T03:10:38.160Z,13.53
2019-04-26T03:11:37.110Z,13.58
2019-04-26T03:12:37.696Z,13.57
2019-04-26T03:13:36.923Z,13.60
2019-04-26T03:14:37.091Z,13.64
2019-04-26T03:15:37.200Z,13.61
2019-04-26T03:16:37.279Z,13.53
2019-04-26T03:17:37.654Z,13.53
2019-04-26T03:18:37.369Z,13.60
2019-04-26T03:19:37.756Z,13.58
2019-04-26T03:20:36.365Z,13.60
2019-04-26T03:21:37.671Z,13.55
2019-04-26T03:22:37.348Z,13.55
2019-04-26T03:23:56.066Z,13.63
2019-04-26T03:24:38.607Z,13.51
2019-04-26T03:25:36.961Z,13.53
2019-04-26T03:26:37.416Z,13.61
2019-04-26T03:27:38.054Z,13.53
2019-04-26T03:28:37.651Z,13.53
2019-04-26T03:29:37.447Z,13.47
2019-04-26T03:30:42.753Z,13.54
2019-04-26T03:31:46.006Z,13.57
2019-04-26T03:32:47.887Z,13.51
2019-04-26T03:33:45.237Z,13.47
2019-04-26T03:34:45.566Z,13.39
2019-04-26T03:35:44.928Z,13.35
2019-04-26T03:36:39.126Z,13.23
2019-04-26T03:37:36.622Z,13.11
2019-04-26T03:38:37.722Z,13.17
2019-04-26T03:39:37.112Z,13.09
2019-04-26T03:40:38.128Z,13.20
2019-04-26T03:41:37.128Z,13.20
2019-04-26T03:42:37.053Z,13.17
2019-04-26T03:43:36.826Z,13.17
2019-04-26T03:44:37.053Z,13.16
2019-04-26T03:45:37.092Z,13.20
2019-04-26T03:46:37.597Z,13.21
2019-04-26T03:47:39.766Z,13.24
2019-04-26T03:48:37.301Z,13.17
2019-04-26T03:49:37.397Z,13.09
2019-04-26T03:50:37.327Z,13.08
2019-04-26T03:51:37.526Z,13.06
2019-04-26T03:52:37.430Z,13.08
2019-04-26T03:53:37.678Z,13.08
2019-04-26T03:54:39.373Z,13.13
2019-04-26T03:55:36.393Z,13.16
2019-04-26T03:56:36.644Z,13.20
2019-04-26T03:57:36.958Z,13.24
2019-04-26T03:58:37.760Z,13.26
2019-04-26T03:59:36.898Z,13.26
2019-04-26T04:00:37.204Z,13.32
2019-04-26T04:01:37.390Z,13.35
2019-04-26T04:02:37.572Z,13.46
2019-04-26T04:03:37.844Z,13.47
2019-04-26T04:04:37.273Z,13.40
2019-04-26T04:05:37.386Z,13.40
2019-04-26T04:06:52.729Z,13.42
2019-04-26T04:07:45.173Z,13.38
2019-04-26T04:08:38.479Z,13.40
2019-04-26T04:09:35.844Z,13.39
2019-04-26T04:10:37.403Z,13.39
2019-04-26T04:11:36.431Z,13.43
2019-04-26T04:12:36.205Z,13.45
2019-04-26T04:13:36.769Z,13.54
2019-04-26T04:14:37.681Z,13.40
2019-04-26T04:15:37.935Z,13.40
2019-04-26T04:16:37.029Z,13.38
2019-04-26T04:17:37.352Z,13.47
2019-04-26T04:18:36.827Z,13.42
2019-04-26T04:19:37.271Z,13.53
2019-04-26T04:20:35.484Z,13.40
2019-04-26T04:21:35.447Z,13.40
2019-04-26T04:22:35.439Z,13.43
2019-04-26T04:23:35.424Z,13.36
2019-04-26T04:24:35.428Z,13.46
2019-04-26T04:25:35.447Z,13.38
2019-04-26T04:26:35.422Z,13.46
2019-04-26T04:27:35.377Z,13.45
2019-04-26T04:28:35.370Z,13.30
2019-04-26T04:29:42.211Z,13.30
2019-04-26T04:30:36.382Z,13.36
2019-04-26T04:31:35.351Z,13.26
2019-04-26T04:32:35.322Z,13.23
2019-04-26T04:33:35.310Z,13.23
2019-04-26T04:34:35.297Z,13.35
2019-04-26T04:35:35.313Z,13.36
2019-04-26T04:36:35.276Z,13.30
2019-04-26T04:37:35.305Z,13.32
2019-04-26T04:38:35.259Z,13.36
2019-04-26T04:39:35.275Z,13.19
2019-04-26T04:40:35.264Z,13.26
2019-04-26T04:41:35.222Z,13.13
2019-04-26T04:42:35.246Z,13.24
2019-04-26T04:43:35.258Z,13.06
2019-04-26T04:44:35.201Z,13.27
2019-04-26T04:45:35.225Z,13.24
2019-04-26T04:46:35.195Z,13.21
2019-04-26T04:47:35.190Z,13.13
2019-04-26T04:48:35.246Z,13.08
2019-04-26T04:49:35.209Z,13.02
2019-04-26T04:50:35.135Z,13.09
2019-04-26T04:51:35.115Z,13.01
2019-04-26T04:52:35.103Z,13.04
2019-04-26T04:53:35.087Z,12.99
2019-04-26T04:54:35.083Z,13.02
2019-04-26T04:55:35.135Z,12.90
2019-04-26T04:56:35.085Z,12.99
2019-04-26T04:57:35.101Z,12.93
2019-04-26T04:58:35.039Z,12.93
2019-04-26T04:59:35.047Z,12.91
2019-04-26T05:00:36.126Z,12.96
2019-04-26T05:01:35.026Z,12.99
2019-04-26T05:02:35.025Z,13.01
2019-04-26T05:03:34.995Z,13.06
2019-04-26T05:04:35.013Z,13.05
2019-04-26T05:05:34.967Z,13.08
2019-04-26T05:06:34.996Z,13.08
2019-04-26T05:07:34.936Z,13.05
2019-04-26T05:08:34.925Z,13.09
2019-04-26T05:09:34.935Z,13.11
2019-04-26T05:10:34.902Z,13.17
2019-04-26T05:11:34.901Z,13.20
2019-04-26T05:12:34.937Z,13.23
2019-04-26T05:13:34.892Z,13.17
2019-04-26T05:14:34.887Z,13.17
2019-04-26T05:15:34.862Z,13.17
2019-04-26T05:16:34.865Z,13.23
2019-04-26T05:17:34.837Z,13.24
2019-04-26T05:18:34.834Z,13.26
2019-04-26T05:19:34.801Z,13.20
2019-04-26T05:20:34.803Z,13.30
2019-04-26T05:21:34.848Z,13.26
2019-04-26T05:22:34.785Z,13.23
2019-04-26T05:23:34.768Z,13.16
2019-04-26T05:24:34.776Z,13.14
2019-04-26T05:25:34.748Z,13.26
2019-04-26T05:26:34.752Z,13.11
2019-04-26T05:27:34.769Z,13.13
2019-04-26T05:28:34.734Z,13.11
2019-04-26T05:29:34.723Z,13.17
2019-04-26T05:30:34.740Z,13.11
2019-04-26T05:31:34.756Z,13.14
2019-04-26T05:32:34.721Z,13.16
2019-04-26T05:33:34.674Z,13.09
2019-04-26T05:34:34.654Z,13.08
2019-04-26T05:35:34.643Z,13.06
2019-04-26T05:36:34.699Z,13.06
2019-04-26T05:37:37.053Z,12.99
2019-04-26T05:38:34.620Z,13.04
2019-04-26T05:39:34.603Z,13.05
2019-04-26T05:40:34.598Z,13.09
2019-04-26T05:41:34.670Z,13.05
2019-04-26T05:42:34.592Z,13.06
2019-04-26T05:43:34.548Z,13.09
2019-04-26T05:44:34.581Z,13.14
2019-04-26T05:45:34.543Z,13.08
2019-04-26T05:46:34.534Z,13.09
2019-04-26T05:47:34.521Z,13.17
2019-04-26T05:48:34.542Z,13.23
2019-04-26T05:49:34.530Z,13.27
2019-04-26T05:50:34.503Z,13.27
2019-04-26T05:51:34.530Z,13.14
2019-04-26T05:52:34.447Z,13.23
2019-04-26T05:53:34.470Z,13.27
2019-04-26T05:54:34.470Z,13.20
2019-04-26T05:55:34.851Z,13.24
2019-04-26T05:56:34.495Z,13.23
2019-04-26T05:57:36.320Z,13.20
2019-04-26T05:58:34.425Z,13.26
2019-04-26T05:59:34.472Z,13.32
2019-04-26T06:00:34.460Z,13.30
2019-04-26T06:01:34.388Z,13.30
2019-04-26T06:02:34.389Z,13.39
2019-04-26T06:03:34.344Z,13.30
2019-04-26T06:04:34.378Z,13.24
2019-04-26T06:05:34.307Z,13.20
2019-04-26T06:06:34.312Z,13.13
2019-04-26T06:07:34.276Z,13.09
2019-04-26T06:08:34.274Z,13.08
2019-04-26T06:09:34.260Z,13.09
2019-04-26T06:10:34.286Z,13.02
2019-04-26T06:11:34.232Z,13.02
2019-04-26T06:12:34.246Z,13.05
2019-04-26T06:13:34.240Z,13.06
2019-04-26T06:14:34.221Z,13.09
2019-04-26T06:15:34.229Z,13.08
2019-04-26T06:16:34.202Z,13.01
2019-04-26T06:17:34.190Z,13.05
2019-04-26T06:18:34.200Z,13.11
2019-04-26T06:19:34.167Z,13.09
2019-04-26T06:20:34.134Z,13.13
2019-04-26T06:21:34.146Z,13.24
2019-04-26T06:22:34.194Z,13.11
2019-04-26T06:23:34.119Z,13.11
2019-04-26T06:24:34.090Z,13.23
2019-04-26T06:25:34.149Z,13.14
2019-04-26T06:26:34.091Z,13.14
2019-04-26T06:27:34.093Z,13.14
2019-04-26T06:28:34.051Z,13.16
2019-04-26T06:29:34.035Z,13.26
2019-04-26T06:30:45.040Z,13.26
2019-04-26T06:31:35.042Z,13.29
2019-04-26T06:32:34.191Z,13.14
2019-04-26T06:33:34.013Z,13.23
2019-04-26T06:34:34.017Z,13.04
2019-04-26T06:35:33.973Z,13.01
2019-04-26T06:36:34.306Z,12.98
2019-04-26T06:37:33.968Z,12.88
2019-04-26T06:38:43.277Z,12.95
2019-04-26T06:39:34.922Z,12.91
2019-04-26T06:40:41.801Z,12.88
2019-04-26T06:41:34.943Z,12.87
2019-04-26T06:42:33.940Z,12.90
2019-04-26T06:43:33.931Z,12.93
2019-04-26T06:44:33.935Z,12.90
2019-04-26T06:45:33.890Z,12.96
2019-04-26T06:46:33.849Z,12.98
2019-04-26T06:47:33.874Z,12.98
2019-04-26T06:48:33.913Z,12.99
2019-04-26T06:49:33.809Z,13.02
2019-04-26T06:50:33.822Z,12.96
2019-04-26T06:51:33.815Z,13.04
2019-04-26T06:52:33.802Z,13.04
2019-04-26T06:53:33.833Z,12.98
2019-04-26T06:54:33.775Z,13.05
2019-04-26T06:55:33.764Z,13.04
2019-04-26T06:56:33.757Z,12.99
2019-04-26T06:57:33.779Z,13.05
2019-04-26T06:58:33.799Z,13.05
2019-04-26T06:59:36.530Z,13.04
2019-04-26T07:00:33.700Z,13.04
2019-04-26T07:01:33.743Z,13.05
2019-04-26T07:02:33.697Z,13.08
2019-04-26T07:03:33.666Z,13.09
2019-04-26T07:04:33.669Z,13.04
2019-04-26T07:05:33.708Z,13.06
2019-04-26T07:06:35.258Z,13.05
2019-04-26T07:07:33.619Z,13.09
2019-04-26T07:08:33.624Z,13.16
2019-04-26T07:09:33.652Z,13.09
2019-04-26T07:10:33.610Z,13.19
2019-04-26T07:11:33.602Z,13.16
2019-04-26T07:12:33.575Z,13.16
2019-04-26T07:13:33.576Z,13.16
2019-04-26T07:14:33.559Z,13.26
2019-04-26T07:15:33.585Z,13.27
2019-04-26T07:16:33.519Z,13.19
2019-04-26T07:17:33.537Z,13.19
2019-04-26T07:18:33.522Z,13.21
2019-04-26T07:19:33.487Z,13.24
2019-04-26T07:20:33.489Z,13.29
2019-04-26T07:21:33.480Z,13.21
2019-04-26T07:22:35.433Z,13.30
2019-04-26T07:23:33.522Z,13.21
2019-04-26T07:24:33.428Z,13.20
2019-04-26T07:25:33.451Z,13.23
2019-04-26T07:26:33.416Z,13.19
2019-04-26T07:27:33.416Z,13.20
2019-04-26T07:28:33.528Z,13.19
2019-04-26T07:29:33.397Z,13.21
2019-04-26T07:30:33.366Z,13.21
2019-04-26T07:31:33.368Z,13.40
2019-04-26T07:32:33.342Z,13.27
2019-04-26T07:33:33.368Z,13.24
2019-04-26T07:34:33.370Z,13.35
2019-04-26T07:35:33.339Z,13.27
2019-04-26T07:36:33.293Z,13.30
2019-04-26T07:37:33.283Z,13.23
2019-04-26T07:38:33.378Z,13.43
2019-04-26T07:39:33.291Z,13.23
2019-04-26T07:40:33.397Z,13.27
2019-04-26T07:41:33.312Z,13.30
2019-04-26T07:42:33.275Z,13.29
2019-04-26T07:43:33.322Z,13.21
2019-04-26T07:44:33.260Z,13.26
2019-04-26T07:45:33.217Z,13.24
2019-04-26T07:46:33.207Z,13.32
2019-04-26T07:47:33.189Z,13.24
2019-04-26T07:48:33.210Z,13.24
2019-04-26T07:49:33.154Z,13.29
2019-04-26T07:50:33.147Z,13.26
2019-04-26T07:51:33.130Z,13.38
2019-04-26T07:52:33.151Z,13.42
2019-04-26T07:53:33.200Z,13.40
2019-04-26T07:54:33.138Z,13.43
2019-04-26T07:55:33.137Z,13.40
2019-04-26T07:56:33.100Z,13.42
2019-04-26T07:57:33.089Z,13.47
2019-04-26T07:58:33.127Z,13.51
2019-04-26T07:59:33.086Z,13.47
2019-04-26T08:00:44.413Z,13.45
2019-04-26T08:01:34.066Z,13.49
2019-04-26T08:02:33.047Z,13.49
2019-04-26T08:03:33.020Z,13.55
2019-04-26T08:04:33.008Z,13.55
2019-04-26T08:05:34.054Z,13.53
2019-04-26T08:06:32.977Z,13.54
2019-04-26T08:07:32.969Z,13.49
2019-04-26T08:08:33.023Z,13.54
2019-04-26T08:09:32.963Z,13.53
2019-04-26T08:10:32.942Z,13.46
2019-04-26T08:11:32.932Z,13.47
2019-04-26T08:12:32.920Z,13.60
2019-04-26T08:13:32.962Z,13.58
2019-04-26T08:14:32.891Z,13.53
2019-04-26T08:15:32.862Z,13.60
2019-04-26T08:16:32.874Z,13.60
2019-04-26T08:17:32.855Z,13.67
2019-04-26T08:18:32.838Z,13.64
2019-04-26T08:19:32.876Z,13.61
2019-04-26T08:20:33.148Z,13.64
2019-04-26T08:21:32.819Z,13.65
2019-04-26T08:22:33.876Z,13.51
2019-04-26T08:23:42.198Z,13.58
2019-04-26T08:24:33.820Z,13.55
2019-04-26T08:25:32.760Z,13.57
2019-04-26T08:26:32.806Z,13.58
2019-04-26T08:27:32.752Z,13.57
2019-04-26T08:28:32.760Z,13.46
2019-04-26T08:29:33.339Z,13.51
2019-04-26T08:30:32.723Z,13.54
2019-04-26T08:31:32.706Z,13.64
2019-04-26T08:32:33.456Z,13.61
2019-04-26T08:33:32.684Z,13.67
2019-04-26T08:34:33.826Z,13.61
2019-04-26T08:35:32.658Z,13.64
2019-04-26T08:36:32.659Z,13.63
2019-04-26T08:37:36.535Z,13.73
2019-04-26T08:38:32.636Z,13.67
2019-04-26T08:39:44.897Z,13.71
2019-04-26T08:40:33.610Z,13.67
2019-04-26T08:41:35.290Z,13.65
2019-04-26T08:42:33.580Z,13.60
2019-04-26T08:43:32.602Z,13.63
2019-04-26T08:44:34.457Z,13.61
2019-04-26T08:45:32.580Z,13.64
2019-04-26T08:46:36.242Z,13.64
2019-04-26T08:47:32.571Z,13.61
2019-04-26T08:48:32.530Z,13.64
2019-04-26T08:49:35.157Z,13.67
2019-04-26T08:50:33.496Z,13.55
2019-04-26T08:51:32.523Z,13.60
2019-04-26T08:52:32.486Z,13.54
2019-04-26T08:53:32.518Z,13.55
2019-04-26T08:54:32.704Z,13.54
2019-04-26T08:55:32.469Z,13.54
2019-04-26T08:56:32.429Z,13.46
2019-04-26T08:57:32.441Z,13.58
2019-04-26T08:58:32.499Z,13.53
2019-04-26T08:59:32.401Z,13.61
2019-04-26T09:00:32.435Z,13.63
2019-04-26T09:01:32.393Z,13.64
2019-04-26T09:02:32.383Z,13.61
2019-04-26T09:03:32.529Z,13.65
2019-04-26T09:04:32.353Z,13.64
2019-04-26T09:05:32.356Z,13.61
2019-04-26T09:06:32.297Z,13.75
2019-04-26T09:07:32.307Z,13.68
2019-04-26T09:08:32.352Z,13.63
2019-04-26T09:09:32.455Z,13.75
2019-04-26T09:10:32.310Z,13.73
2019-04-26T09:11:33.942Z,13.73
2019-04-26T09:12:32.288Z,13.72
2019-04-26T09:13:32.274Z,13.65
2019-04-26T09:14:32.268Z,13.71
2019-04-26T09:15:32.242Z,13.78
2019-04-26T09:16:32.212Z,13.71
2019-04-26T09:17:33.762Z,13.67
2019-04-26T09:18:42.508Z,13.82
2019-04-26T09:19:33.193Z,13.79
2019-04-26T09:20:32.186Z,13.76
2019-04-26T09:21:32.180Z,13.72
2019-04-26T09:22:32.191Z,13.80
2019-04-26T09:23:39.849Z,13.78
2019-04-26T09:24:33.147Z,13.79
2019-04-26T09:25:34.421Z,13.80
2019-04-26T09:26:33.130Z,13.80
2019-04-26T09:27:32.086Z,13.83
2019-04-26T09:28:32.068Z,13.91
2019-04-26T09:29:32.205Z,13.97
2019-04-26T09:30:34.051Z,13.97
2019-04-26T09:31:32.035Z,14.01
2019-04-26T09:32:32.011Z,14.08
2019-04-26T09:33:35.906Z,14.11
2019-04-26T09:34:33.015Z,14.15
2019-04-26T09:35:31.994Z,14.30
2019-04-26T09:36:31.968Z,14.21
2019-04-26T09:37:31.961Z,14.30
2019-04-26T09:38:31.958Z,14.37
2019-04-26T09:39:31.997Z,14.30
2019-04-26T09:40:31.927Z,14.46
2019-04-26T09:41:32.192Z,14.46
2019-04-26T09:42:31.916Z,14.52
2019-04-26T09:43:31.910Z,14.56
2019-04-26T09:44:31.922Z,14.59
2019-04-26T09:45:31.901Z,14.52
2019-04-26T09:46:31.862Z,14.58
2019-04-26T09:47:31.899Z,14.56
2019-04-26T09:48:31.862Z,14.45
2019-04-26T09:49:31.900Z,14.46
2019-04-26T09:50:31.849Z,14.46
2019-04-26T09:51:34.838Z,14.41
2019-04-26T09:52:32.845Z,14.46
2019-04-26T09:53:31.805Z,14.41
2019-04-26T09:54:31.806Z,14.51
2019-04-26T09:55:35.405Z,14.46
2019-04-26T09:56:31.775Z,14.53
2019-04-26T09:57:31.800Z,14.49
2019-04-26T09:58:32.249Z,14.56
2019-04-26T09:59:31.747Z,14.52
2019-04-26T10:00:31.739Z,14.69
2019-04-26T10:01:31.712Z,14.63
2019-04-26T10:02:33.888Z,14.67
2019-04-26T10:03:34.232Z,14.70
2019-04-26T10:04:31.690Z,14.64
2019-04-26T10:05:31.665Z,14.82
2019-04-26T10:06:31.672Z,14.73
2019-04-26T10:07:33.426Z,14.74
2019-04-26T10:08:32.650Z,14.63
2019-04-26T10:09:31.615Z,14.69
2019-04-26T10:10:35.200Z,14.74
2019-04-26T10:11:31.594Z,14.74
2019-04-26T10:12:31.606Z,14.73
2019-04-26T10:13:31.581Z,14.71
2019-04-26T10:14:31.562Z,14.82
2019-04-26T10:15:31.587Z,14.89
2019-04-26T10:16:33.604Z,14.82
2019-04-26T10:17:32.561Z,14.85
2019-04-26T10:18:31.527Z,14.83
2019-04-26T10:19:31.905Z,14.96
2019-04-26T10:20:31.584Z,14.96
2019-04-26T10:21:31.503Z,14.99
2019-04-26T10:22:31.526Z,15.11
2019-04-26T10:23:31.459Z,15.19
2019-04-26T10:24:31.450Z,15.12
2019-04-26T10:25:31.453Z,15.14
2019-04-26T10:26:31.444Z,15.15
2019-04-26T10:27:32.517Z,15.20
2019-04-26T10:28:31.426Z,15.15
2019-04-26T10:29:31.408Z,15.14
2019-04-26T10:30:31.399Z,15.19
2019-04-26T10:31:31.398Z,15.23
2019-04-26T10:32:31.437Z,15.20
2019-04-26T10:33:32.595Z,15.20
2019-04-26T10:34:31.339Z,15.12
2019-04-26T10:35:31.371Z,15.19
2019-04-26T10:36:31.532Z,15.17
2019-04-26T10:37:39.202Z,15.20
2019-04-26T10:38:32.344Z,15.20
2019-04-26T10:39:32.414Z,15.20
2019-04-26T10:40:35.686Z,15.23
2019-04-26T10:41:31.333Z,15.26
2019-04-26T10:42:31.335Z,15.20
2019-04-26T10:43:31.290Z,15.19
2019-04-26T10:44:31.322Z,15.22
2019-04-26T10:45:31.249Z,15.23
2019-04-26T10:46:31.247Z,15.17
2019-04-26T10:47:34.296Z,15.27
2019-04-26T10:48:31.216Z,15.29
2019-04-26T10:49:31.170Z,15.38
2019-04-26T10:50:32.967Z,15.30
2019-04-26T10:51:31.162Z,15.35
2019-04-26T10:52:31.196Z,15.33
2019-04-26T10:53:31.960Z,15.33
2019-04-26T10:54:31.132Z,15.33
2019-04-26T10:55:31.102Z,15.35
2019-04-26T10:56:31.157Z,15.44
2019-04-26T10:57:31.151Z,15.45
2019-04-26T10:58:31.942Z,15.36
2019-04-26T10:59:31.849Z,15.38
2019-04-26T11:00:31.068Z,15.36
2019-04-26T11:01:31.058Z,15.27
2019-04-26T11:02:31.127Z,15.29
2019-04-26T11:03:31.061Z,15.22
2019-04-26T11:04:31.050Z,15.25
2019-04-26T11:05:31.038Z,15.25
2019-04-26T11:06:31.049Z,15.25
2019-04-26T11:07:31.107Z,15.25
2019-04-26T11:08:30.969Z,15.23
2019-04-26T11:09:30.970Z,15.27
2019-04-26T11:10:30.952Z,15.23
2019-04-26T11:11:30.991Z,15.30
2019-04-26T11:12:30.932Z,15.23
2019-04-26T11:13:30.951Z,15.29
2019-04-26T11:14:30.929Z,15.20
2019-04-26T11:15:32.594Z,15.19
2019-04-26T11:16:30.889Z,15.22
2019-04-26T11:17:30.962Z,15.20
2019-04-26T11:18:31.007Z,15.30
2019-04-26T11:19:32.000Z,15.23
2019-04-26T11:20:30.858Z,15.25
2019-04-26T11:21:30.809Z,15.25
2019-04-26T11:22:33.414Z,15.32
2019-04-26T11:23:31.842Z,15.20
2019-04-26T11:24:31.060Z,15.26
2019-04-26T11:25:30.797Z,15.26
2019-04-26T11:26:30.990Z,15.25
2019-04-26T11:27:30.793Z,15.26
2019-04-26T11:28:30.732Z,15.22
2019-04-26T11:29:30.777Z,15.25
2019-04-26T11:30:30.800Z,15.12
2019-04-26T11:31:30.790Z,15.19
2019-04-26T11:32:33.136Z,15.25
2019-04-26T11:33:31.727Z,15.25
2019-04-26T11:34:30.755Z,15.11
2019-04-26T11:35:33.205Z,15.19
2019-04-26T11:36:30.697Z,15.20
2019-04-26T11:37:30.659Z,15.14
2019-04-26T11:38:31.577Z,15.22
2019-04-26T11:39:30.659Z,15.23
2019-04-26T11:40:30.660Z,15.27
2019-04-26T11:41:34.029Z,15.26
2019-04-26T11:42:30.656Z,15.17
2019-04-26T11:43:30.603Z,15.19
2019-04-26T11:44:30.592Z,15.10
2019-04-26T11:45:30.550Z,15.22
2019-04-26T11:46:30.644Z,15.19
2019-04-26T11:47:30.546Z,15.27
2019-04-26T11:48:30.733Z,15.15
2019-04-26T11:49:30.561Z,15.25
2019-04-26T11:50:30.833Z,15.26
2019-04-26T11:51:30.548Z,15.15
2019-04-26T11:52:32.138Z,15.30
2019-04-26T11:53:33.431Z,15.35
2019-04-26T11:54:30.478Z,15.38
2019-04-26T11:55:31.494Z,15.35
2019-04-26T11:56:30.463Z,15.33
2019-04-26T11:57:30.451Z,15.38
2019-04-26T11:58:30.432Z,15.30
2019-04-26T11:59:31.670Z,15.36
2019-04-26T12:00:30.413Z,15.43
2019-04-26T12:01:30.412Z,15.51
2019-04-26T12:02:30.384Z,15.54
2019-04-26T12:03:30.451Z,15.60
2019-04-26T12:04:30.428Z,15.70
2019-04-26T12:05:30.365Z,15.68
2019-04-26T12:06:30.324Z,15.80
2019-04-26T12:07:30.349Z,15.77
2019-04-26T12:08:30.365Z,15.98
2019-04-26T12:09:30.331Z,16.00
2019-04-26T12:10:30.318Z,15.96
2019-04-26T12:11:35.045Z,16.08
2019-04-26T12:12:30.285Z,16.08
2019-04-26T12:13:30.322Z,16.05
2019-04-26T12:14:33.488Z,16.13
2019-04-26T12:15:30.790Z,16.10
2019-04-26T12:16:30.243Z,16.28
2019-04-26T12:17:31.217Z,16.24
2019-04-26T12:18:30.398Z,16.24
2019-04-26T12:19:30.205Z,16.13
2019-04-26T12:20:30.167Z,16.10
2019-04-26T12:21:30.501Z,16.13
2019-04-26T12:22:30.180Z,15.96
2019-04-26T12:23:30.177Z,15.93
2019-04-26T12:24:34.299Z,15.95
2019-04-26T12:25:31.158Z,15.95
2019-04-26T12:26:42.136Z,15.98
2019-04-26T12:27:31.914Z,16.05
2019-04-26T12:28:30.123Z,16.14
2019-04-26T12:29:30.135Z,16.17
2019-04-26T12:30:30.062Z,16.32
2019-04-26T12:31:30.054Z,16.25
2019-04-26T12:32:30.089Z,16.29
2019-04-26T12:33:30.088Z,16.33
2019-04-26T12:34:30.029Z,16.36
2019-04-26T12:35:30.247Z,16.33
2019-04-26T12:36:29.996Z,16.34
2019-04-26T12:37:29.990Z,16.29
2019-04-26T12:38:30.131Z,16.26
2019-04-26T12:39:32.299Z,16.28
2019-04-26T12:40:30.993Z,16.24
2019-04-26T12:41:40.023Z,16.28
2019-04-26T12:42:30.941Z,16.25
2019-04-26T12:43:29.937Z,16.29
2019-04-26T12:44:32.183Z,16.28
2019-04-26T12:45:30.947Z,16.33
2019-04-26T12:46:31.956Z,16.32
2019-04-26T12:47:30.622Z,16.26
2019-04-26T12:48:29.893Z,16.26
2019-04-26T12:49:29.906Z,16.32
2019-04-26T12:50:36.538Z,16.40
2019-04-26T12:51:30.852Z,16.26
2019-04-26T12:52:29.802Z,16.17
2019-04-26T12:53:31.240Z,16.18
2019-04-26T12:54:29.920Z,16.21